sensor_id;sensor_type;location;lat;lon;timestamp;temperature;humidity
10692;DHT22;5396;50.950;6.988;2023-11-19T00:00:20;9.90;99.90
10692;DHT22;5396;50.950;6.988;2023-11-19T00:02:46;10.00;99.90
10692;DHT22;5396;50.950;6.988;2023-11-19T00:05:12;10.00;99.90
10692;DHT22;5396;50.950;6.988;2023-11-19T00:07:40;10.00;99.90
10692;DHT22;5396;50.950;6.988;2023-11-19T00:10:09;10.00;99.90
10692;DHT22;5396;50.950;6.988;2023-11-19T00:12:36;10.10;99.90
10692;DHT22;5396;50.950;6.988;2023-11-19T00:15:02;10.10;99.90
10692;DHT22;5396;50.950;6.988;2023-11-19T00:17:27;10.10;99.90
10692;DHT22;5396;50.950;6.988;2023-11-19T00:19:53;10.10;99.90
10692;DHT22;5396;50.950;6.988;2023-11-19T00:22:18;10.10;99.90
10692;DHT22;5396;50.950;6.988;2023-11-19T00:24:46;10.20;99.90
10692;DHT22;5396;50.950;6.988;2023-11-19T00:27:13;10.30;99.90
10692;DHT22;5396;50.950;6.988;2023-11-19T00:29:39;10.30;99.90
10692;DHT22;5396;50.950;6.988;2023-11-19T00:32:05;10.40;99.90
10692;DHT22;5396;50.950;6.988;2023-11-19T00:34:32;10.50;99.90
10692;DHT22;5396;50.950;6.988;2023-11-19T00:36:58;10.50;99.90
10692;DHT22;5396;50.950;6.988;2023-11-19T00:39:23;10.60;99.90
10692;DHT22;5396;50.950;6.988;2023-11-19T00:41:49;10.60;99.90
10692;DHT22;5396;50.950;6.988;2023-11-19T00:44:14;10.60;99.90
10692;DHT22;5396;50.950;6.988;2023-11-19T00:46:40;10.70;99.90
10692;DHT22;5396;50.950;6.988;2023-11-19T00:49:05;10.80;99.90
10692;DHT22;5396;50.950;6.988;2023-11-19T00:51:31;10.80;99.90
10692;DHT22;5396;50.950;6.988;2023-11-19T00:53:59;10.80;99.90
10692;DHT22;5396;50.950;6.988;2023-11-19T00:56:26;10.70;99.90
10692;DHT22;5396;50.950;6.988;2023-11-19T00:58:51;10.70;99.90
10692;DHT22;5396;50.950;6.988;2023-11-19T01:01:17;10.70;99.90
10692;DHT22;5396;50.950;6.988;2023-11-19T01:03:42;10.80;99.90
10692;DHT22;5396;50.950;6.988;2023-11-19T01:06:08;10.80;99.90
10692;DHT22;5396;50.950;6.988;2023-11-19T01:08:33;10.90;99.90
10692;DHT22;5396;50.950;6.988;2023-11-19T01:11:01;10.90;99.90
10692;DHT22;5396;50.950;6.988;2023-11-19T01:13:27;10.80;99.90
10692;DHT22;5396;50.950;6.988;2023-11-19T01:15:53;10.90;99.90
10692;DHT22;5396;50.950;6.988;2023-11-19T01:18:18;10.90;99.90
10692;DHT22;5396;50.950;6.988;2023-11-19T01:20:44;11.00;99.90
10692;DHT22;5396;50.950;6.988;2023-11-19T01:23:09;11.10;99.90
10692;DHT22;5396;50.950;6.988;2023-11-19T01:25:35;11.10;99.90
10692;DHT22;5396;50.950;6.988;2023-11-19T01:28:00;11.10;99.90
10692;DHT22;5396;50.950;6.988;2023-11-19T01:30:27;11.10;99.90
10692;DHT22;5396;50.950;6.988;2023-11-19T01:32:53;11.10;99.90
10692;DHT22;5396;50.950;6.988;2023-11-19T01:35:18;11.10;99.90
10692;DHT22;5396;50.950;6.988;2023-11-19T01:37:44;11.10;99.90
10692;DHT22;5396;50.950;6.988;2023-11-19T01:40:09;11.10;99.90
10692;DHT22;5396;50.950;6.988;2023-11-19T01:42:37;11.10;99.90
10692;DHT22;5396;50.950;6.988;2023-11-19T01:45:03;11.10;99.90
10692;DHT22;5396;50.950;6.988;2023-11-19T01:47:32;11.10;99.90
10692;DHT22;5396;50.950;6.988;2023-11-19T01:49:58;11.20;99.90
10692;DHT22;5396;50.950;6.988;2023-11-19T01:52:24;11.20;99.90
10692;DHT22;5396;50.950;6.988;2023-11-19T01:54:50;11.20;99.90
10692;DHT22;5396;50.950;6.988;2023-11-19T01:57:16;11.20;99.90
10692;DHT22;5396;50.950;6.988;2023-11-19T01:59:42;11.20;99.90
10692;DHT22;5396;50.950;6.988;2023-11-19T02:02:08;11.20;99.90
10692;DHT22;5396;50.950;6.988;2023-11-19T02:04:34;11.20;99.90
10692;DHT22;5396;50.950;6.988;2023-11-19T02:07:00;11.20;99.90
10692;DHT22;5396;50.950;6.988;2023-11-19T02:09:25;11.20;99.90
10692;DHT22;5396;50.950;6.988;2023-11-19T02:11:52;11.40;99.90
10692;DHT22;5396;50.950;6.988;2023-11-19T02:14:18;11.60;99.90
10692;DHT22;5396;50.950;6.988;2023-11-19T02:16:48;11.80;99.90
10692;DHT22;5396;50.950;6.988;2023-11-19T02:19:14;12.00;99.90
10692;DHT22;5396;50.950;6.988;2023-11-19T02:21:39;12.10;99.90
10692;DHT22;5396;50.950;6.988;2023-11-19T02:24:07;12.20;99.90
10692;DHT22;5396;50.950;6.988;2023-11-19T02:29:07;12.20;99.90
10692;DHT22;5396;50.950;6.988;2023-11-19T02:31:33;12.40;99.90
10692;DHT22;5396;50.950;6.988;2023-11-19T02:34:00;12.50;99.90
10692;DHT22;5396;50.950;6.988;2023-11-19T02:36:27;12.50;99.90
10692;DHT22;5396;50.950;6.988;2023-11-19T02:38:53;12.60;99.90
10692;DHT22;5396;50.950;6.988;2023-11-19T02:41:18;12.60;99.90
10692;DHT22;5396;50.950;6.988;2023-11-19T02:43:44;12.60;99.90
10692;DHT22;5396;50.950;6.988;2023-11-19T02:46:09;12.60;99.90
10692;DHT22;5396;50.950;6.988;2023-11-19T02:48:36;12.70;99.90
10692;DHT22;5396;50.950;6.988;2023-11-19T02:51:02;12.60;99.90
10692;DHT22;5396;50.950;6.988;2023-11-19T02:53:29;12.60;99.90
10692;DHT22;5396;50.950;6.988;2023-11-19T02:55:54;12.60;99.90
10692;DHT22;5396;50.950;6.988;2023-11-19T02:58:26;12.60;99.90
10692;DHT22;5396;50.950;6.988;2023-11-19T03:00:54;12.50;99.90
10692;DHT22;5396;50.950;6.988;2023-11-19T03:03:26;12.40;99.90
10692;DHT22;5396;50.950;6.988;2023-11-19T03:05:56;12.30;99.90
10692;DHT22;5396;50.950;6.988;2023-11-19T03:08:22;12.40;99.90
10692;DHT22;5396;50.950;6.988;2023-11-19T03:10:48;12.40;99.90
10692;DHT22;5396;50.950;6.988;2023-11-19T03:13:14;12.50;99.90
10692;DHT22;5396;50.950;6.988;2023-11-19T03:15:40;12.50;99.90
10692;DHT22;5396;50.950;6.988;2023-11-19T03:18:05;12.50;99.90
10692;DHT22;5396;50.950;6.988;2023-11-19T03:20:31;12.40;99.90
10692;DHT22;5396;50.950;6.988;2023-11-19T03:22:56;12.50;99.90
10692;DHT22;5396;50.950;6.988;2023-11-19T03:25:25;12.60;99.90
10692;DHT22;5396;50.950;6.988;2023-11-19T03:28:02;12.60;99.90
10692;DHT22;5396;50.950;6.988;2023-11-19T03:30:28;12.70;99.90
10692;DHT22;5396;50.950;6.988;2023-11-19T03:32:54;12.70;99.90
10692;DHT22;5396;50.950;6.988;2023-11-19T03:35:20;12.80;99.90
10692;DHT22;5396;50.950;6.988;2023-11-19T03:37:45;12.80;99.90
10692;DHT22;5396;50.950;6.988;2023-11-19T03:40:11;12.80;99.90
10692;DHT22;5396;50.950;6.988;2023-11-19T03:42:37;12.90;99.90
10692;DHT22;5396;50.950;6.988;2023-11-19T03:45:05;12.90;99.90
10692;DHT22;5396;50.950;6.988;2023-11-19T03:47:32;13.00;99.90
10692;DHT22;5396;50.950;6.988;2023-11-19T03:49:57;13.10;99.90
10692;DHT22;5396;50.950;6.988;2023-11-19T03:52:23;13.00;99.90
10692;DHT22;5396;50.950;6.988;2023-11-19T03:54:49;13.00;99.90
10692;DHT22;5396;50.950;6.988;2023-11-19T03:57:14;13.20;99.90
10692;DHT22;5396;50.950;6.988;2023-11-19T03:59:41;13.20;99.90
10692;DHT22;5396;50.950;6.988;2023-11-19T04:02:06;13.20;99.90
10692;DHT22;5396;50.950;6.988;2023-11-19T04:04:32;13.20;99.90
10692;DHT22;5396;50.950;6.988;2023-11-19T04:06:58;13.20;99.90
10692;DHT22;5396;50.950;6.988;2023-11-19T04:09:24;13.20;99.90
10692;DHT22;5396;50.950;6.988;2023-11-19T04:11:50;13.20;99.90
10692;DHT22;5396;50.950;6.988;2023-11-19T04:14:15;13.30;99.90
10692;DHT22;5396;50.950;6.988;2023-11-19T04:16:46;13.20;99.90
10692;DHT22;5396;50.950;6.988;2023-11-19T04:19:12;13.30;99.90
10692;DHT22;5396;50.950;6.988;2023-11-19T04:21:40;13.30;99.90
10692;DHT22;5396;50.950;6.988;2023-11-19T04:24:07;13.30;99.90
10692;DHT22;5396;50.950;6.988;2023-11-19T04:26:33;13.30;99.90
10692;DHT22;5396;50.950;6.988;2023-11-19T04:28:59;13.30;99.90
10692;DHT22;5396;50.950;6.988;2023-11-19T04:31:31;13.30;99.90
10692;DHT22;5396;50.950;6.988;2023-11-19T04:33:56;13.30;99.90
10692;DHT22;5396;50.950;6.988;2023-11-19T04:36:22;13.20;99.90
10692;DHT22;5396;50.950;6.988;2023-11-19T04:38:50;13.20;99.90
10692;DHT22;5396;50.950;6.988;2023-11-19T04:41:15;13.30;99.90
10692;DHT22;5396;50.950;6.988;2023-11-19T04:43:41;13.30;99.90
10692;DHT22;5396;50.950;6.988;2023-11-19T04:46:06;13.30;99.90
10692;DHT22;5396;50.950;6.988;2023-11-19T04:48:32;13.40;99.90
10692;DHT22;5396;50.950;6.988;2023-11-19T04:50:57;13.30;99.90
10692;DHT22;5396;50.950;6.988;2023-11-19T04:53:23;13.40;99.90
10692;DHT22;5396;50.950;6.988;2023-11-19T04:55:48;13.40;99.90
10692;DHT22;5396;50.950;6.988;2023-11-19T04:58:14;13.40;99.90
10692;DHT22;5396;50.950;6.988;2023-11-19T05:00:39;13.40;99.90
10692;DHT22;5396;50.950;6.988;2023-11-19T05:03:05;13.40;99.90
10692;DHT22;5396;50.950;6.988;2023-11-19T05:05:30;13.50;99.90
10692;DHT22;5396;50.950;6.988;2023-11-19T05:07:56;13.50;99.90
10692;DHT22;5396;50.950;6.988;2023-11-19T05:10:22;13.50;99.90
10692;DHT22;5396;50.950;6.988;2023-11-19T05:12:47;13.30;99.90
10692;DHT22;5396;50.950;6.988;2023-11-19T05:15:13;13.20;99.90
10692;DHT22;5396;50.950;6.988;2023-11-19T05:17:39;13.20;99.90
10692;DHT22;5396;50.950;6.988;2023-11-19T05:20:05;13.20;99.90
10692;DHT22;5396;50.950;6.988;2023-11-19T05:22:35;13.10;99.90
10692;DHT22;5396;50.950;6.988;2023-11-19T05:25:00;13.10;99.90
10692;DHT22;5396;50.950;6.988;2023-11-19T05:27:28;13.10;99.90
10692;DHT22;5396;50.950;6.988;2023-11-19T05:29:53;13.00;99.90
10692;DHT22;5396;50.950;6.988;2023-11-19T05:32:19;13.00;99.90
10692;DHT22;5396;50.950;6.988;2023-11-19T05:34:45;12.90;99.90
10692;DHT22;5396;50.950;6.988;2023-11-19T05:37:10;12.90;99.90
10692;DHT22;5396;50.950;6.988;2023-11-19T05:39:35;13.00;99.90
10692;DHT22;5396;50.950;6.988;2023-11-19T05:42:01;13.00;99.90
10692;DHT22;5396;50.950;6.988;2023-11-19T05:44:26;13.00;99.90
10692;DHT22;5396;50.950;6.988;2023-11-19T05:46:52;13.00;99.90
10692;DHT22;5396;50.950;6.988;2023-11-19T05:49:17;13.00;99.90
10692;DHT22;5396;50.950;6.988;2023-11-19T05:51:43;12.90;99.90
10692;DHT22;5396;50.950;6.988;2023-11-19T05:54:09;12.90;99.90
10692;DHT22;5396;50.950;6.988;2023-11-19T05:56:35;13.00;99.90
10692;DHT22;5396;50.950;6.988;2023-11-19T05:59:01;12.90;99.90
10692;DHT22;5396;50.950;6.988;2023-11-19T06:01:31;12.90;99.90
10692;DHT22;5396;50.950;6.988;2023-11-19T06:03:56;13.00;99.90
10692;DHT22;5396;50.950;6.988;2023-11-19T06:06:23;12.90;99.90
10692;DHT22;5396;50.950;6.988;2023-11-19T06:08:49;12.90;99.90
10692;DHT22;5396;50.950;6.988;2023-11-19T06:11:15;12.90;99.90
10692;DHT22;5396;50.950;6.988;2023-11-19T06:13:43;12.90;99.90
10692;DHT22;5396;50.950;6.988;2023-11-19T06:16:09;12.90;99.90
10692;DHT22;5396;50.950;6.988;2023-11-19T06:18:35;12.90;99.90
10692;DHT22;5396;50.950;6.988;2023-11-19T06:21:01;12.80;99.90
10692;DHT22;5396;50.950;6.988;2023-11-19T06:23:26;12.80;99.90
10692;DHT22;5396;50.950;6.988;2023-11-19T06:25:52;12.80;99.90
10692;DHT22;5396;50.950;6.988;2023-11-19T06:28:17;12.80;99.90
10692;DHT22;5396;50.950;6.988;2023-11-19T06:30:43;12.80;99.90
10692;DHT22;5396;50.950;6.988;2023-11-19T06:33:08;12.90;99.90
10692;DHT22;5396;50.950;6.988;2023-11-19T06:35:34;12.90;99.90
10692;DHT22;5396;50.950;6.988;2023-11-19T06:38:02;12.90;99.90
10692;DHT22;5396;50.950;6.988;2023-11-19T06:40:28;12.90;99.90
10692;DHT22;5396;50.950;6.988;2023-11-19T06:42:55;12.90;99.90
10692;DHT22;5396;50.950;6.988;2023-11-19T06:45:20;12.90;99.90
10692;DHT22;5396;50.950;6.988;2023-11-19T06:47:46;12.80;99.90
10692;DHT22;5396;50.950;6.988;2023-11-19T06:50:11;12.80;99.90
10692;DHT22;5396;50.950;6.988;2023-11-19T06:52:37;12.80;99.90
10692;DHT22;5396;50.950;6.988;2023-11-19T06:55:03;12.80;99.90
10692;DHT22;5396;50.950;6.988;2023-11-19T06:57:29;12.70;99.90
10692;DHT22;5396;50.950;6.988;2023-11-19T06:59:58;12.80;99.90
10692;DHT22;5396;50.950;6.988;2023-11-19T07:02:24;12.80;99.90
10692;DHT22;5396;50.950;6.988;2023-11-19T07:04:50;12.80;99.90
10692;DHT22;5396;50.950;6.988;2023-11-19T07:07:15;12.70;99.90
10692;DHT22;5396;50.950;6.988;2023-11-19T07:09:41;12.70;99.90
10692;DHT22;5396;50.950;6.988;2023-11-19T07:12:06;12.70;99.90
10692;DHT22;5396;50.950;6.988;2023-11-19T07:14:32;12.70;99.90
10692;DHT22;5396;50.950;6.988;2023-11-19T07:16:57;12.70;99.90
10692;DHT22;5396;50.950;6.988;2023-11-19T07:19:23;12.70;99.90
10692;DHT22;5396;50.950;6.988;2023-11-19T07:21:48;12.60;99.90
10692;DHT22;5396;50.950;6.988;2023-11-19T07:24:14;12.60;99.90
10692;DHT22;5396;50.950;6.988;2023-11-19T07:26:43;12.60;99.90
10692;DHT22;5396;50.950;6.988;2023-11-19T07:29:09;12.50;99.90
10692;DHT22;5396;50.950;6.988;2023-11-19T07:31:35;12.50;99.90
10692;DHT22;5396;50.950;6.988;2023-11-19T07:34:01;12.50;99.90
10692;DHT22;5396;50.950;6.988;2023-11-19T07:36:26;12.50;99.90
10692;DHT22;5396;50.950;6.988;2023-11-19T07:38:52;12.60;99.90
10692;DHT22;5396;50.950;6.988;2023-11-19T07:41:18;12.70;99.90
10692;DHT22;5396;50.950;6.988;2023-11-19T07:43:45;12.70;99.90
10692;DHT22;5396;50.950;6.988;2023-11-19T07:46:12;12.70;99.90
10692;DHT22;5396;50.950;6.988;2023-11-19T07:48:40;12.70;99.90
10692;DHT22;5396;50.950;6.988;2023-11-19T07:51:07;12.70;99.90
10692;DHT22;5396;50.950;6.988;2023-11-19T07:53:34;12.60;99.90
10692;DHT22;5396;50.950;6.988;2023-11-19T07:56:00;12.60;99.90
10692;DHT22;5396;50.950;6.988;2023-11-19T07:58:26;12.70;99.90
10692;DHT22;5396;50.950;6.988;2023-11-19T08:00:51;12.60;99.90
10692;DHT22;5396;50.950;6.988;2023-11-19T08:03:17;12.60;99.90
10692;DHT22;5396;50.950;6.988;2023-11-19T08:05:44;12.60;99.90
10692;DHT22;5396;50.950;6.988;2023-11-19T08:08:10;12.60;99.90
10692;DHT22;5396;50.950;6.988;2023-11-19T08:10:35;12.60;99.90
10692;DHT22;5396;50.950;6.988;2023-11-19T08:13:01;12.60;99.90
10692;DHT22;5396;50.950;6.988;2023-11-19T08:15:27;12.60;99.90
10692;DHT22;5396;50.950;6.988;2023-11-19T08:17:52;12.60;99.90
10692;DHT22;5396;50.950;6.988;2023-11-19T08:20:18;12.60;99.90
10692;DHT22;5396;50.950;6.988;2023-11-19T08:22:45;12.60;99.90
10692;DHT22;5396;50.950;6.988;2023-11-19T08:25:10;12.60;99.90
10692;DHT22;5396;50.950;6.988;2023-11-19T08:27:36;12.60;99.90
10692;DHT22;5396;50.950;6.988;2023-11-19T08:30:02;12.70;99.90
10692;DHT22;5396;50.950;6.988;2023-11-19T08:32:27;12.70;99.90
10692;DHT22;5396;50.950;6.988;2023-11-19T08:34:53;12.80;99.90
10692;DHT22;5396;50.950;6.988;2023-11-19T08:37:19;12.80;99.90
10692;DHT22;5396;50.950;6.988;2023-11-19T08:39:46;12.90;99.90
10692;DHT22;5396;50.950;6.988;2023-11-19T08:42:14;12.80;99.90
10692;DHT22;5396;50.950;6.988;2023-11-19T08:44:41;12.80;99.90
10692;DHT22;5396;50.950;6.988;2023-11-19T08:47:12;12.80;99.90
10692;DHT22;5396;50.950;6.988;2023-11-19T08:49:38;12.90;99.90
10692;DHT22;5396;50.950;6.988;2023-11-19T08:52:04;12.90;99.90
10692;DHT22;5396;50.950;6.988;2023-11-19T08:54:30;13.00;99.90
10692;DHT22;5396;50.950;6.988;2023-11-19T08:56:55;13.00;99.90
10692;DHT22;5396;50.950;6.988;2023-11-19T08:59:21;13.10;99.90
10692;DHT22;5396;50.950;6.988;2023-11-19T09:01:47;13.10;99.90
10692;DHT22;5396;50.950;6.988;2023-11-19T09:04:12;13.10;99.90
10692;DHT22;5396;50.950;6.988;2023-11-19T09:06:38;13.10;99.90
10692;DHT22;5396;50.950;6.988;2023-11-19T09:09:03;13.20;99.90
10692;DHT22;5396;50.950;6.988;2023-11-19T09:11:30;13.20;99.90
10692;DHT22;5396;50.950;6.988;2023-11-19T09:13:56;13.30;99.90
10692;DHT22;5396;50.950;6.988;2023-11-19T09:16:22;13.30;99.90
10692;DHT22;5396;50.950;6.988;2023-11-19T09:18:47;13.40;99.90
10692;DHT22;5396;50.950;6.988;2023-11-19T09:21:13;13.40;99.90
10692;DHT22;5396;50.950;6.988;2023-11-19T09:23:38;13.50;99.90
10692;DHT22;5396;50.950;6.988;2023-11-19T09:26:04;13.50;99.90
10692;DHT22;5396;50.950;6.988;2023-11-19T09:28:30;13.50;99.90
10692;DHT22;5396;50.950;6.988;2023-11-19T09:30:56;13.60;99.90
10692;DHT22;5396;50.950;6.988;2023-11-19T09:33:24;13.60;99.90
10692;DHT22;5396;50.950;6.988;2023-11-19T09:35:50;13.60;99.90
10692;DHT22;5396;50.950;6.988;2023-11-19T09:38:16;13.70;99.90
10692;DHT22;5396;50.950;6.988;2023-11-19T09:40:42;13.60;99.90
10692;DHT22;5396;50.950;6.988;2023-11-19T09:43:07;13.60;99.90
10692;DHT22;5396;50.950;6.988;2023-11-19T09:45:45;13.60;99.90
10692;DHT22;5396;50.950;6.988;2023-11-19T09:48:12;13.70;99.90
10692;DHT22;5396;50.950;6.988;2023-11-19T09:50:38;13.80;99.90
10692;DHT22;5396;50.950;6.988;2023-11-19T09:53:04;13.90;99.90
10692;DHT22;5396;50.950;6.988;2023-11-19T09:55:33;14.10;99.90
10692;DHT22;5396;50.950;6.988;2023-11-19T09:57:58;14.10;99.90
10692;DHT22;5396;50.950;6.988;2023-11-19T10:00:26;14.20;99.90
10692;DHT22;5396;50.950;6.988;2023-11-19T10:02:52;14.10;99.90
10692;DHT22;5396;50.950;6.988;2023-11-19T10:05:17;14.10;99.90
10692;DHT22;5396;50.950;6.988;2023-11-19T10:07:46;14.20;99.90
10692;DHT22;5396;50.950;6.988;2023-11-19T10:10:12;14.20;99.90
10692;DHT22;5396;50.950;6.988;2023-11-19T10:12:40;14.10;99.90
10692;DHT22;5396;50.950;6.988;2023-11-19T10:15:06;14.10;99.90
10692;DHT22;5396;50.950;6.988;2023-11-19T10:17:33;14.10;99.90
10692;DHT22;5396;50.950;6.988;2023-11-19T10:19:58;14.20;99.90
10692;DHT22;5396;50.950;6.988;2023-11-19T10:22:24;14.20;99.90
10692;DHT22;5396;50.950;6.988;2023-11-19T10:24:51;14.30;99.90
10692;DHT22;5396;50.950;6.988;2023-11-19T10:27:17;14.30;99.90
10692;DHT22;5396;50.950;6.988;2023-11-19T10:29:46;14.30;99.90
10692;DHT22;5396;50.950;6.988;2023-11-19T10:32:12;14.30;99.90
10692;DHT22;5396;50.950;6.988;2023-11-19T10:34:38;14.40;99.90
10692;DHT22;5396;50.950;6.988;2023-11-19T10:37:05;14.40;99.90
10692;DHT22;5396;50.950;6.988;2023-11-19T10:39:37;14.30;99.90
10692;DHT22;5396;50.950;6.988;2023-11-19T10:42:16;14.30;99.90
10692;DHT22;5396;50.950;6.988;2023-11-19T10:44:43;14.30;99.90
10692;DHT22;5396;50.950;6.988;2023-11-19T10:47:09;14.40;99.90
10692;DHT22;5396;50.950;6.988;2023-11-19T10:49:35;14.50;99.90
10692;DHT22;5396;50.950;6.988;2023-11-19T10:52:01;14.50;99.90
10692;DHT22;5396;50.950;6.988;2023-11-19T10:54:27;14.50;99.90
10692;DHT22;5396;50.950;6.988;2023-11-19T10:56:58;14.50;99.90
10692;DHT22;5396;50.950;6.988;2023-11-19T10:59:25;14.50;99.90
10692;DHT22;5396;50.950;6.988;2023-11-19T11:01:53;14.50;99.90
10692;DHT22;5396;50.950;6.988;2023-11-19T11:04:21;14.40;99.90
10692;DHT22;5396;50.950;6.988;2023-11-19T11:06:49;14.40;99.90
10692;DHT22;5396;50.950;6.988;2023-11-19T11:09:16;14.50;99.90
10692;DHT22;5396;50.950;6.988;2023-11-19T11:11:44;14.40;99.90
10692;DHT22;5396;50.950;6.988;2023-11-19T11:14:12;14.40;99.90
10692;DHT22;5396;50.950;6.988;2023-11-19T11:16:39;14.30;99.90
10692;DHT22;5396;50.950;6.988;2023-11-19T11:19:07;14.20;99.90
10692;DHT22;5396;50.950;6.988;2023-11-19T11:21:34;14.20;99.90
10692;DHT22;5396;50.950;6.988;2023-11-19T11:39:13;13.80;99.90
10692;DHT22;5396;50.950;6.988;2023-11-19T11:41:41;13.90;99.90
10692;DHT22;5396;50.950;6.988;2023-11-19T11:44:07;14.10;99.90
10692;DHT22;5396;50.950;6.988;2023-11-19T11:49:03;14.20;99.90
10692;DHT22;5396;50.950;6.988;2023-11-19T11:57:03;14.10;99.90
10692;DHT22;5396;50.950;6.988;2023-11-19T12:02:07;14.10;99.90
10692;DHT22;5396;50.950;6.988;2023-11-19T12:04:34;14.10;99.90
10692;DHT22;5396;50.950;6.988;2023-11-19T12:07:06;14.20;99.90
10692;DHT22;5396;50.950;6.988;2023-11-19T12:09:32;14.50;99.90
10692;DHT22;5396;50.950;6.988;2023-11-19T12:20:17;14.70;99.90
10692;DHT22;5396;50.950;6.988;2023-11-19T12:22:43;14.70;99.90
10692;DHT22;5396;50.950;6.988;2023-11-19T12:25:10;14.60;99.90
10692;DHT22;5396;50.950;6.988;2023-11-19T12:27:39;14.70;99.90
10692;DHT22;5396;50.950;6.988;2023-11-19T12:30:04;14.70;99.90
10692;DHT22;5396;50.950;6.988;2023-11-19T12:32:43;14.70;99.90
10692;DHT22;5396;50.950;6.988;2023-11-19T12:35:09;14.70;99.90
10692;DHT22;5396;50.950;6.988;2023-11-19T12:37:47;14.70;99.90
10692;DHT22;5396;50.950;6.988;2023-11-19T12:40:16;14.70;99.90
10692;DHT22;5396;50.950;6.988;2023-11-19T12:42:43;14.70;99.90
10692;DHT22;5396;50.950;6.988;2023-11-19T12:45:08;14.70;99.90
10692;DHT22;5396;50.950;6.988;2023-11-19T12:47:36;14.70;99.90
10692;DHT22;5396;50.950;6.988;2023-11-19T12:50:02;14.60;99.90
10692;DHT22;5396;50.950;6.988;2023-11-19T12:52:28;14.50;99.90
10692;DHT22;5396;50.950;6.988;2023-11-19T12:54:53;14.50;99.90
10692;DHT22;5396;50.950;6.988;2023-11-19T12:57:19;14.40;99.90
10692;DHT22;5396;50.950;6.988;2023-11-19T12:59:56;14.40;99.90
10692;DHT22;5396;50.950;6.988;2023-11-19T13:02:22;14.40;99.90
10692;DHT22;5396;50.950;6.988;2023-11-19T13:04:48;14.30;99.90
10692;DHT22;5396;50.950;6.988;2023-11-19T13:07:15;14.30;99.90
10692;DHT22;5396;50.950;6.988;2023-11-19T13:09:45;14.30;99.90
10692;DHT22;5396;50.950;6.988;2023-11-19T13:12:14;14.40;99.90
10692;DHT22;5396;50.950;6.988;2023-11-19T13:14:41;14.50;99.90
10692;DHT22;5396;50.950;6.988;2023-11-19T13:17:14;14.50;99.90
10692;DHT22;5396;50.950;6.988;2023-11-19T13:19:40;14.40;99.90
10692;DHT22;5396;50.950;6.988;2023-11-19T13:22:05;14.30;99.90
10692;DHT22;5396;50.950;6.988;2023-11-19T13:24:30;14.40;99.90
10692;DHT22;5396;50.950;6.988;2023-11-19T13:26:56;14.70;99.90
10692;DHT22;5396;50.950;6.988;2023-11-19T13:29:23;15.00;99.90
10692;DHT22;5396;50.950;6.988;2023-11-19T13:31:48;14.90;99.90
10692;DHT22;5396;50.950;6.988;2023-11-19T13:34:15;14.60;99.90
10692;DHT22;5396;50.950;6.988;2023-11-19T13:36:40;14.50;99.90
10692;DHT22;5396;50.950;6.988;2023-11-19T13:39:05;14.50;99.90
10692;DHT22;5396;50.950;6.988;2023-11-19T13:41:32;14.50;99.90
10692;DHT22;5396;50.950;6.988;2023-11-19T13:43:58;15.00;99.90
10692;DHT22;5396;50.950;6.988;2023-11-19T13:46:24;15.20;99.90
10692;DHT22;5396;50.950;6.988;2023-11-19T13:48:49;15.30;99.90
10692;DHT22;5396;50.950;6.988;2023-11-19T13:51:15;15.40;99.90
10692;DHT22;5396;50.950;6.988;2023-11-19T13:53:42;15.70;99.90
10692;DHT22;5396;50.950;6.988;2023-11-19T13:56:08;16.20;99.90
10692;DHT22;5396;50.950;6.988;2023-11-19T13:58:34;16.20;99.90
10692;DHT22;5396;50.950;6.988;2023-11-19T14:01:00;16.00;99.90
10692;DHT22;5396;50.950;6.988;2023-11-19T14:03:27;15.60;99.90
10692;DHT22;5396;50.950;6.988;2023-11-19T14:05:53;15.40;99.90
10692;DHT22;5396;50.950;6.988;2023-11-19T14:08:20;15.10;99.90
10692;DHT22;5396;50.950;6.988;2023-11-19T14:10:46;14.90;99.90
10692;DHT22;5396;50.950;6.988;2023-11-19T14:13:11;14.70;99.90
10692;DHT22;5396;50.950;6.988;2023-11-19T14:15:37;14.60;99.90
10692;DHT22;5396;50.950;6.988;2023-11-19T14:18:02;14.50;99.90
10692;DHT22;5396;50.950;6.988;2023-11-19T14:20:28;14.50;99.90
10692;DHT22;5396;50.950;6.988;2023-11-19T14:22:54;14.40;99.90
10692;DHT22;5396;50.950;6.988;2023-11-19T14:25:19;14.40;99.90
10692;DHT22;5396;50.950;6.988;2023-11-19T14:27:46;14.40;99.90
10692;DHT22;5396;50.950;6.988;2023-11-19T14:30:12;14.30;99.90
10692;DHT22;5396;50.950;6.988;2023-11-19T14:32:41;14.30;99.90
10692;DHT22;5396;50.950;6.988;2023-11-19T14:35:15;14.30;99.90
10692;DHT22;5396;50.950;6.988;2023-11-19T14:37:40;14.20;99.90
10692;DHT22;5396;50.950;6.988;2023-11-19T14:40:06;14.20;99.90
10692;DHT22;5396;50.950;6.988;2023-11-19T14:42:35;14.20;99.90
10692;DHT22;5396;50.950;6.988;2023-11-19T14:45:00;14.20;99.90
10692;DHT22;5396;50.950;6.988;2023-11-19T14:47:26;14.20;99.90
10692;DHT22;5396;50.950;6.988;2023-11-19T14:49:51;14.20;99.90
10692;DHT22;5396;50.950;6.988;2023-11-19T14:52:17;14.10;99.90
10692;DHT22;5396;50.950;6.988;2023-11-19T14:54:42;14.10;99.90
10692;DHT22;5396;50.950;6.988;2023-11-19T14:57:08;14.00;99.90
10692;DHT22;5396;50.950;6.988;2023-11-19T14:59:33;13.90;99.90
10692;DHT22;5396;50.950;6.988;2023-11-19T15:01:59;13.90;99.90
10692;DHT22;5396;50.950;6.988;2023-11-19T15:04:26;14.00;99.90
10692;DHT22;5396;50.950;6.988;2023-11-19T15:06:51;13.90;99.90
10692;DHT22;5396;50.950;6.988;2023-11-19T15:09:17;13.90;99.90
10692;DHT22;5396;50.950;6.988;2023-11-19T15:11:46;13.90;99.90
10692;DHT22;5396;50.950;6.988;2023-11-19T15:14:12;13.80;99.90
10692;DHT22;5396;50.950;6.988;2023-11-19T15:16:42;13.80;99.90
10692;DHT22;5396;50.950;6.988;2023-11-19T15:19:07;13.80;99.90
10692;DHT22;5396;50.950;6.988;2023-11-19T15:21:33;13.70;99.90
10692;DHT22;5396;50.950;6.988;2023-11-19T15:23:59;13.70;99.90
10692;DHT22;5396;50.950;6.988;2023-11-19T15:26:24;13.60;99.90
10692;DHT22;5396;50.950;6.988;2023-11-19T15:28:50;13.60;99.90
10692;DHT22;5396;50.950;6.988;2023-11-19T15:31:16;13.60;99.90
10692;DHT22;5396;50.950;6.988;2023-11-19T15:33:42;13.60;99.90
10692;DHT22;5396;50.950;6.988;2023-11-19T15:36:08;13.50;99.90
10692;DHT22;5396;50.950;6.988;2023-11-19T15:38:33;13.40;99.90
10692;DHT22;5396;50.950;6.988;2023-11-19T15:40:59;13.10;99.90
10692;DHT22;5396;50.950;6.988;2023-11-19T15:43:24;12.80;99.90
10692;DHT22;5396;50.950;6.988;2023-11-19T15:45:50;12.50;99.90
10692;DHT22;5396;50.950;6.988;2023-11-19T15:48:15;12.30;99.90
10692;DHT22;5396;50.950;6.988;2023-11-19T15:50:41;12.10;99.90
10692;DHT22;5396;50.950;6.988;2023-11-19T15:53:09;12.00;99.90
10692;DHT22;5396;50.950;6.988;2023-11-19T15:55:34;12.00;99.90
10692;DHT22;5396;50.950;6.988;2023-11-19T15:58:00;12.00;99.90
10692;DHT22;5396;50.950;6.988;2023-11-19T16:00:26;12.00;99.90
10692;DHT22;5396;50.950;6.988;2023-11-19T16:02:51;12.10;99.90
10692;DHT22;5396;50.950;6.988;2023-11-19T16:05:18;12.20;99.90
10692;DHT22;5396;50.950;6.988;2023-11-19T16:07:43;12.30;99.90
10692;DHT22;5396;50.950;6.988;2023-11-19T16:10:09;12.40;99.90
10692;DHT22;5396;50.950;6.988;2023-11-19T16:12:37;12.50;99.90
10692;DHT22;5396;50.950;6.988;2023-11-19T16:15:03;12.40;99.90